createdAt,value
2022-10-25T00:00:24.926Z,15.18
2022-10-25T00:02:54.253Z,16.02
2022-10-25T00:05:22.260Z,15.93
2022-10-25T00:07:50.269Z,15.88
2022-10-25T00:10:21.133Z,15.98
2022-10-25T00:12:52.770Z,14.65
2022-10-25T00:15:20.969Z,15.23
2022-10-25T00:17:49.039Z,14.68
2022-10-25T00:20:19.440Z,15.70
2022-10-25T00:22:47.985Z,15.85
2022-10-25T00:25:16.657Z,15.80
2022-10-25T00:27:44.627Z,15.40
2022-10-25T00:30:13.809Z,16.00
2022-10-25T00:32:41.765Z,16.05
2022-10-25T00:35:10.544Z,15.30
2022-10-25T00:37:39.906Z,15.00
2022-10-25T00:40:08.980Z,15.32
2022-10-25T00:42:37.004Z,16.10
2022-10-25T00:45:19.474Z,16.52
2022-10-25T00:47:51.957Z,16.52
2022-10-25T00:50:26.534Z,16.25
2022-10-25T00:53:04.098Z,17.05
2022-10-25T00:55:33.190Z,16.08
2022-10-25T00:58:04.952Z,12.52
2022-10-25T01:00:33.249Z,10.52
2022-10-25T01:03:01.357Z,9.02
2022-10-25T01:05:29.560Z,8.95
2022-10-25T01:07:59.257Z,8.35
2022-10-25T01:10:27.330Z,8.00
2022-10-25T01:12:55.995Z,7.20
2022-10-25T01:15:30.270Z,7.75
2022-10-25T01:18:08.263Z,8.23
2022-10-25T01:21:13.327Z,8.60
2022-10-25T01:24:06.794Z,9.25
2022-10-25T01:27:11.177Z,8.80
2022-10-25T01:30:07.553Z,10.40
2022-10-25T01:32:54.982Z,9.82
2022-10-25T01:35:30.548Z,10.30
2022-10-25T01:38:07.639Z,10.63
2022-10-25T01:40:43.903Z,9.10
2022-10-25T01:43:20.681Z,8.55
2022-10-25T01:45:51.732Z,8.52
2022-10-25T01:48:25.137Z,10.52
2022-10-25T01:50:53.367Z,10.75
2022-10-25T01:53:21.283Z,10.38
2022-10-25T01:55:54.649Z,10.45
2022-10-25T01:58:33.298Z,10.20
2022-10-25T02:01:11.731Z,9.55
2022-10-25T02:03:47.640Z,9.80
2022-10-25T02:06:23.518Z,10.70
2022-10-25T02:08:58.121Z,11.43
2022-10-25T02:11:28.069Z,10.57
2022-10-25T02:14:06.791Z,12.07
2022-10-25T02:16:40.689Z,11.13
2022-10-25T02:19:14.403Z,10.77
2022-10-25T02:21:44.993Z,11.00
2022-10-25T02:24:17.848Z,10.93
2022-10-25T02:29:16.498Z,10.85
2022-10-25T02:31:45.196Z,11.75
2022-10-25T02:34:14.546Z,12.48
2022-10-25T02:36:42.454Z,13.52
2022-10-25T02:39:10.457Z,12.70
2022-10-25T02:41:38.397Z,12.35
2022-10-25T02:44:06.307Z,13.55
2022-10-25T02:46:34.236Z,13.05
2022-10-25T02:49:02.212Z,11.73
2022-10-25T02:51:31.513Z,12.98
2022-10-25T02:53:59.882Z,12.05
2022-10-25T02:56:28.076Z,12.25
2022-10-25T02:58:58.209Z,12.25
2022-10-25T03:01:26.943Z,12.50
2022-10-25T03:03:55.018Z,12.45
2022-10-25T03:06:23.322Z,13.10
2022-10-25T03:08:52.623Z,13.52
2022-10-25T03:11:20.997Z,13.60
2022-10-25T03:13:48.914Z,13.07
2022-10-25T03:16:16.841Z,13.35
2022-10-25T03:18:44.831Z,14.98
2022-10-25T03:21:12.789Z,14.35
2022-10-25T03:23:40.884Z,14.85
2022-10-25T03:26:10.178Z,15.45
2022-10-25T03:28:38.114Z,14.73
2022-10-25T03:31:12.672Z,15.13
2022-10-25T03:33:40.973Z,15.40
2022-10-25T03:36:09.740Z,16.15
2022-10-25T03:38:37.816Z,16.90
2022-10-25T03:41:06.272Z,16.98
2022-10-25T03:43:35.618Z,17.23
2022-10-25T03:46:03.571Z,16.98
2022-10-25T03:48:31.519Z,17.83
2022-10-25T03:50:59.534Z,18.20
2022-10-25T03:53:27.435Z,18.40
2022-10-25T03:55:55.355Z,18.65
2022-10-25T03:58:23.257Z,17.60
2022-10-25T04:00:52.565Z,17.73
2022-10-25T04:03:20.479Z,18.70
2022-10-25T04:05:48.413Z,18.30
2022-10-25T04:08:16.319Z,18.65
2022-10-25T04:10:44.252Z,18.27
2022-10-25T04:13:12.175Z,18.63
2022-10-25T04:15:40.154Z,18.70
2022-10-25T04:18:09.407Z,19.67
2022-10-25T04:20:37.352Z,19.55
2022-10-25T04:23:05.432Z,20.00
2022-10-25T04:25:33.389Z,21.15
2022-10-25T04:28:01.334Z,19.15
2022-10-25T04:30:29.278Z,20.17
2022-10-25T04:32:58.733Z,20.92
2022-10-25T04:35:28.098Z,19.98
2022-10-25T04:37:58.507Z,19.58
2022-10-25T04:40:26.897Z,19.33
2022-10-25T04:42:54.876Z,19.58
2022-10-25T04:45:22.852Z,20.27
2022-10-25T04:47:50.747Z,19.77
2022-10-25T04:50:18.840Z,19.70
2022-10-25T04:52:48.346Z,20.05
2022-10-25T04:55:16.651Z,20.73
2022-10-25T04:57:44.573Z,19.67
2022-10-25T05:00:13.461Z,20.75
2022-10-25T05:02:41.435Z,20.67
2022-10-25T05:05:10.061Z,21.42
2022-10-25T05:07:38.070Z,21.15
2022-10-25T05:10:07.820Z,20.98
2022-10-25T05:12:35.838Z,21.55
2022-10-25T05:15:03.784Z,21.73
2022-10-25T05:17:31.712Z,22.35
2022-10-25T05:20:03.876Z,22.17
2022-10-25T05:22:32.559Z,23.33
2022-10-25T05:25:00.473Z,24.05
2022-10-25T05:27:29.722Z,22.83
2022-10-25T05:29:57.660Z,21.73
2022-10-25T05:32:25.608Z,23.90
2022-10-25T05:34:53.536Z,24.13
2022-10-25T05:37:21.487Z,22.10
2022-10-25T05:39:49.491Z,22.13
2022-10-25T05:42:17.395Z,22.65
2022-10-25T05:44:46.684Z,23.52
2022-10-25T05:47:14.858Z,22.95
2022-10-25T05:49:42.756Z,23.13
2022-10-25T05:52:11.259Z,21.98
2022-10-25T05:54:39.246Z,23.13
2022-10-25T05:57:07.150Z,23.15
2022-10-25T05:59:35.082Z,21.27
2022-10-25T06:02:04.469Z,22.65
2022-10-25T06:04:32.550Z,22.27
2022-10-25T06:07:00.462Z,21.90
2022-10-25T06:09:28.425Z,22.48
2022-10-25T06:11:56.373Z,21.38
2022-10-25T06:14:24.295Z,21.27
2022-10-25T06:16:52.203Z,23.17
2022-10-25T06:19:21.485Z,21.27
2022-10-25T06:21:49.472Z,22.58
2022-10-25T06:24:17.391Z,21.40
2022-10-25T06:26:45.355Z,22.30
2022-10-25T06:29:13.319Z,22.70
2022-10-25T06:31:41.644Z,22.30
2022-10-25T06:34:09.738Z,22.35
2022-10-25T06:36:39.061Z,22.35
2022-10-25T06:39:07.187Z,21.38
2022-10-25T06:41:37.688Z,22.15
2022-10-25T06:44:07.418Z,21.85
2022-10-25T06:47:11.521Z,21.48
2022-10-25T06:49:26.032Z,17.80
2022-10-25T06:51:55.362Z,19.00
2022-10-25T06:54:25.488Z,18.55
2022-10-25T06:56:53.565Z,19.58
2022-10-25T06:59:21.528Z,20.15
2022-10-25T07:01:50.101Z,19.15
2022-10-25T07:04:18.235Z,18.38
2022-10-25T07:06:48.796Z,17.75
2022-10-25T07:09:20.789Z,18.35
2022-10-25T07:11:48.732Z,18.67
2022-10-25T07:14:16.786Z,18.15
2022-10-25T07:16:44.712Z,17.45
2022-10-25T07:19:12.647Z,17.50
2022-10-25T07:21:40.583Z,18.35
2022-10-25T07:24:11.718Z,18.52
2022-10-25T07:26:41.808Z,17.63
2022-10-25T07:29:10.218Z,18.48
2022-10-25T07:31:40.838Z,17.70
2022-10-25T07:34:08.854Z,18.23
2022-10-25T07:36:36.791Z,17.23
2022-10-25T07:39:04.867Z,18.17
2022-10-25T07:41:32.826Z,20.23
2022-10-25T07:44:02.269Z,18.40
2022-10-25T07:46:30.245Z,17.20
2022-10-25T07:48:58.202Z,17.67
2022-10-25T07:51:26.175Z,17.00
2022-10-25T07:53:54.453Z,16.65
2022-10-25T07:56:23.624Z,17.65
2022-10-25T07:58:52.202Z,16.77
2022-10-25T08:01:23.687Z,15.68
2022-10-25T08:03:52.461Z,16.10
2022-10-25T08:06:21.461Z,15.25
2022-10-25T08:08:50.103Z,15.02
2022-10-25T08:11:18.358Z,14.88
2022-10-25T08:13:49.705Z,13.57
2022-10-25T08:16:17.940Z,13.85
2022-10-25T08:18:47.491Z,12.90
2022-10-25T08:21:16.200Z,12.93
2022-10-25T08:23:44.154Z,13.25
2022-10-25T08:26:12.139Z,13.13
2022-10-25T08:28:40.104Z,12.80
2022-10-25T08:31:08.514Z,12.35
2022-10-25T08:33:36.800Z,12.85
2022-10-25T08:36:06.558Z,14.15
2022-10-25T08:38:34.483Z,13.95
2022-10-25T08:41:10.290Z,14.95
2022-10-25T08:44:04.725Z,16.23
2022-10-25T08:46:37.328Z,14.38
2022-10-25T08:49:13.495Z,15.95
2022-10-25T08:51:47.262Z,16.88
2022-10-25T08:54:24.074Z,15.20
2022-10-25T08:57:14.249Z,15.55
2022-10-25T08:59:46.691Z,15.55
2022-10-25T09:02:22.253Z,16.17
2022-10-25T09:04:50.315Z,17.85
2022-10-25T09:07:42.781Z,16.52
2022-10-25T09:10:22.331Z,17.35
2022-10-25T09:12:57.830Z,17.77
2022-10-25T09:15:42.136Z,18.33
2022-10-25T09:18:16.999Z,19.08
2022-10-25T09:20:50.854Z,17.85
2022-10-25T09:23:27.778Z,18.02
2022-10-25T09:26:04.174Z,18.48
2022-10-25T09:28:50.454Z,17.90
2022-10-25T09:31:23.769Z,19.40
2022-10-25T09:33:58.873Z,18.98
2022-10-25T09:36:33.164Z,18.23
2022-10-25T09:39:10.260Z,18.85
2022-10-25T09:41:44.308Z,18.50
2022-10-25T09:44:17.219Z,18.67
2022-10-25T09:46:49.950Z,18.30
2022-10-25T09:49:25.487Z,19.08
2022-10-25T09:52:01.359Z,17.98
2022-10-25T09:54:36.413Z,18.00
2022-10-25T09:57:04.969Z,17.48
2022-10-25T09:59:32.966Z,19.05
2022-10-25T10:02:01.034Z,19.33
2022-10-25T10:04:35.539Z,19.50
2022-10-25T10:07:08.184Z,17.98
2022-10-25T10:09:45.702Z,18.90
2022-10-25T10:12:21.431Z,17.85
2022-10-25T10:14:56.901Z,17.95
2022-10-25T10:17:26.141Z,18.27
2022-10-25T10:20:13.812Z,17.98
2022-10-25T10:25:22.727Z,18.20
2022-10-25T10:27:53.443Z,17.65
2022-10-25T10:30:24.901Z,17.23
2022-10-25T10:32:58.675Z,18.48
2022-10-25T10:35:30.041Z,18.17
2022-10-25T10:38:22.752Z,17.70
2022-10-25T10:40:53.545Z,17.90
2022-10-25T10:43:28.441Z,16.95
2022-10-25T10:46:02.527Z,16.48
2022-10-25T10:48:36.672Z,15.75
2022-10-25T10:51:15.441Z,15.27
2022-10-25T10:53:55.580Z,15.57
2022-10-25T10:56:28.481Z,13.15
2022-10-25T10:58:56.464Z,14.60
2022-10-25T11:01:33.357Z,13.15
2022-10-25T11:04:03.362Z,14.07
2022-10-25T11:06:33.272Z,12.68
2022-10-25T11:09:20.357Z,12.68
2022-10-25T11:12:07.370Z,13.10
2022-10-25T11:14:35.543Z,11.02
2022-10-25T11:17:09.488Z,13.25
2022-10-25T11:19:55.902Z,14.73
2022-10-25T11:22:54.663Z,15.38
2022-10-25T11:25:34.798Z,15.27
2022-10-25T11:28:21.591Z,14.65
2022-10-25T11:30:58.656Z,13.75
2022-10-25T11:33:48.874Z,13.18
2022-10-25T11:36:36.914Z,12.05
2022-10-25T11:39:18.003Z,11.52
2022-10-25T11:41:48.891Z,11.43
2022-10-25T11:44:46.562Z,11.80
2022-10-25T11:47:25.283Z,12.90
2022-10-25T11:50:10.928Z,13.23
2022-10-25T11:53:09.498Z,13.82
2022-10-25T11:55:43.746Z,12.45
2022-10-25T11:58:25.416Z,13.32
2022-10-25T12:01:03.659Z,13.38
2022-10-25T12:03:46.089Z,12.73
2022-10-25T12:06:22.349Z,12.43
2022-10-25T12:09:03.587Z,13.95
2022-10-25T12:11:34.605Z,13.93
2022-10-25T12:14:06.927Z,14.70
2022-10-25T12:16:38.684Z,14.25
2022-10-25T12:19:14.103Z,13.60
2022-10-25T12:21:45.999Z,13.38
2022-10-25T12:24:20.975Z,13.43
2022-10-25T12:26:53.077Z,13.00
2022-10-25T12:29:25.326Z,12.48
2022-10-25T12:31:57.970Z,12.75
2022-10-25T12:34:34.349Z,11.80
2022-10-25T12:37:06.497Z,10.63
2022-10-25T12:39:40.156Z,10.73
2022-10-25T12:42:14.169Z,10.00
2022-10-25T12:45:22.646Z,9.52
2022-10-25T12:48:03.942Z,9.00
2022-10-25T12:51:01.188Z,8.95
2022-10-25T12:53:59.317Z,8.60
2022-10-25T12:56:40.520Z,8.25
2022-10-25T12:59:14.216Z,8.57
2022-10-25T13:01:58.013Z,8.77
2022-10-25T13:04:53.590Z,8.32
2022-10-25T13:07:23.379Z,8.00
2022-10-25T13:09:51.720Z,8.02
2022-10-25T13:12:22.957Z,8.45
2022-10-25T13:14:53.950Z,7.80
2022-10-25T13:17:45.215Z,7.78
2022-10-25T13:20:49.770Z,7.95
2022-10-25T13:23:49.444Z,8.88
2022-10-25T13:26:18.942Z,9.15
2022-10-25T13:28:48.515Z,8.82
2022-10-25T13:31:58.153Z,8.63
2022-10-25T13:34:35.473Z,9.13
2022-10-25T13:37:06.688Z,10.07
2022-10-25T13:39:38.887Z,8.98
2022-10-25T13:42:23.362Z,8.60
2022-10-25T13:44:57.458Z,8.50
2022-10-25T13:47:44.553Z,8.88
2022-10-25T13:50:19.851Z,8.50
2022-10-25T13:53:01.559Z,8.27
2022-10-25T13:55:35.571Z,7.45
2022-10-25T13:58:25.654Z,8.73
2022-10-25T14:00:57.757Z,6.40
2022-10-25T14:03:47.449Z,7.03
2022-10-25T14:06:30.120Z,7.05
2022-10-25T14:09:13.391Z,6.90
2022-10-25T14:11:48.456Z,7.43
2022-10-25T14:14:28.764Z,6.50
2022-10-25T14:17:14.930Z,7.20
2022-10-25T14:19:46.374Z,7.30
2022-10-25T14:22:17.656Z,6.68
2022-10-25T14:24:50.140Z,6.63
2022-10-25T14:27:32.667Z,7.43
2022-10-25T14:30:14.016Z,6.25
2022-10-25T14:32:51.873Z,7.22
2022-10-25T14:35:20.142Z,7.07
2022-10-25T14:37:48.442Z,7.70
2022-10-25T14:40:22.980Z,8.85
2022-10-25T14:42:51.343Z,7.82
2022-10-25T14:45:23.722Z,7.75
2022-10-25T14:47:53.249Z,6.90
2022-10-25T14:50:24.610Z,6.90
2022-10-25T14:52:54.892Z,6.03
2022-10-25T14:55:31.353Z,6.78
2022-10-25T14:58:02.012Z,6.07
2022-10-25T15:00:30.808Z,6.20
2022-10-25T15:03:02.611Z,8.07
2022-10-25T15:05:30.747Z,6.45
2022-10-25T15:08:01.052Z,6.85
2022-10-25T15:10:49.675Z,6.85
2022-10-25T15:13:23.084Z,8.82
2022-10-25T15:15:52.648Z,7.10
2022-10-25T15:18:34.046Z,6.95
2022-10-25T15:21:09.376Z,7.35
2022-10-25T15:23:38.263Z,8.25
2022-10-25T15:26:32.779Z,7.32
2022-10-25T15:29:03.172Z,8.95
2022-10-25T15:31:33.340Z,10.70
2022-10-25T15:34:05.519Z,10.55
2022-10-25T15:36:35.328Z,14.25
2022-10-25T15:39:17.356Z,15.50
2022-10-25T15:41:45.316Z,16.90
2022-10-25T15:44:13.250Z,15.35
2022-10-25T15:46:41.648Z,9.38
2022-10-25T15:49:14.064Z,13.85
2022-10-25T15:51:44.049Z,14.60
2022-10-25T15:54:16.376Z,10.45
2022-10-25T15:56:45.075Z,9.95
2022-10-25T15:59:14.143Z,9.93
2022-10-25T16:01:44.416Z,8.75
2022-10-25T16:04:16.284Z,7.82
2022-10-25T16:06:45.263Z,8.20
2022-10-25T16:09:13.238Z,7.43
2022-10-25T16:11:46.315Z,7.80
2022-10-25T16:14:22.257Z,7.35
2022-10-25T16:16:50.713Z,8.05
2022-10-25T16:19:21.591Z,7.30
2022-10-25T16:21:49.621Z,8.10
2022-10-25T16:24:18.049Z,7.40
2022-10-25T16:26:48.498Z,7.82
2022-10-25T16:29:18.088Z,7.82
2022-10-25T16:31:46.098Z,8.77
2022-10-25T16:34:15.501Z,9.38
2022-10-25T16:36:44.923Z,7.72
2022-10-25T16:39:13.039Z,8.15
2022-10-25T16:41:42.812Z,8.80
2022-10-25T16:44:12.261Z,8.18
2022-10-25T16:46:40.227Z,8.82
2022-10-25T16:49:09.403Z,7.80
2022-10-25T16:51:37.939Z,8.13
2022-10-25T16:54:07.604Z,7.75
2022-10-25T16:56:35.648Z,7.70
2022-10-25T16:59:03.714Z,7.50
2022-10-25T17:01:34.277Z,8.05
2022-10-25T17:04:03.796Z,8.27
2022-10-25T17:06:47.231Z,8.43
2022-10-25T17:09:17.932Z,7.68
2022-10-25T17:11:46.819Z,8.80
2022-10-25T17:14:14.822Z,8.93
2022-10-25T17:16:45.001Z,8.57
2022-10-25T17:19:13.540Z,9.30
2022-10-25T17:21:41.557Z,9.30
2022-10-25T17:24:10.014Z,9.48
2022-10-25T17:26:39.939Z,8.70
2022-10-25T17:29:07.893Z,9.60
2022-10-25T17:31:36.136Z,10.30
2022-10-25T17:34:04.723Z,9.27
2022-10-25T17:36:32.727Z,9.50
2022-10-25T17:39:01.090Z,9.48
2022-10-25T17:41:29.321Z,9.80
2022-10-25T17:43:58.830Z,10.10
2022-10-25T17:46:29.195Z,10.45
2022-10-25T17:49:01.869Z,10.73
2022-10-25T17:51:32.576Z,10.25
2022-10-25T17:54:00.553Z,10.55
2022-10-25T17:56:29.027Z,10.45
2022-10-25T17:58:59.450Z,10.68
2022-10-25T18:01:31.915Z,10.82
2022-10-25T18:04:00.004Z,11.23
2022-10-25T18:06:28.339Z,10.70
2022-10-25T18:08:58.852Z,11.27
2022-10-25T18:11:28.423Z,10.65
2022-10-25T18:14:00.129Z,11.82
2022-10-25T18:16:31.052Z,11.45
2022-10-25T18:19:01.072Z,11.52
2022-10-25T18:21:29.572Z,11.13
2022-10-25T18:23:58.488Z,11.20
2022-10-25T18:26:27.139Z,11.57
2022-10-25T18:28:55.254Z,13.80
2022-10-25T18:31:26.981Z,11.15
2022-10-25T18:33:56.263Z,11.85
2022-10-25T18:36:24.185Z,13.57
2022-10-25T18:38:52.662Z,13.40
2022-10-25T18:41:22.561Z,14.38
2022-10-25T18:43:50.819Z,14.65
2022-10-25T18:46:18.932Z,14.27
2022-10-25T18:48:51.532Z,13.95
2022-10-25T18:51:21.196Z,13.07
2022-10-25T18:53:49.134Z,13.07
2022-10-25T18:56:21.137Z,13.40
2022-10-25T18:58:50.195Z,12.23
2022-10-25T19:01:22.225Z,12.40
2022-10-25T19:03:52.068Z,12.57
2022-10-25T19:06:20.443Z,12.20
2022-10-25T19:08:49.242Z,11.85
2022-10-25T19:11:17.425Z,11.70
2022-10-25T19:13:48.862Z,11.95
2022-10-25T19:16:19.326Z,11.38
2022-10-25T19:18:47.274Z,11.80
2022-10-25T19:21:18.438Z,12.10
2022-10-25T19:23:47.296Z,12.52
2022-10-25T19:26:18.189Z,11.68
2022-10-25T19:28:46.665Z,10.88
2022-10-25T19:31:17.041Z,11.00
2022-10-25T19:33:46.904Z,11.25
2022-10-25T19:36:17.520Z,11.70
2022-10-25T19:38:46.126Z,10.90
2022-10-25T19:41:16.903Z,11.27
2022-10-25T19:43:45.184Z,11.35
2022-10-25T19:46:13.916Z,10.65
2022-10-25T19:48:42.043Z,11.30
2022-10-25T19:51:11.783Z,11.18
2022-10-25T19:53:41.618Z,11.48
2022-10-25T19:56:12.542Z,10.90
2022-10-25T19:58:41.056Z,10.65
2022-10-25T20:01:11.833Z,11.90
2022-10-25T20:03:41.297Z,11.77
2022-10-25T20:06:10.991Z,10.73
2022-10-25T20:08:41.328Z,11.07
2022-10-25T20:11:11.598Z,11.35
2022-10-25T20:13:39.606Z,10.68
2022-10-25T20:16:08.183Z,11.07
2022-10-25T20:18:37.696Z,10.45
2022-10-25T20:21:07.867Z,10.52
2022-10-25T20:23:36.448Z,11.63
2022-10-25T20:26:14.153Z,11.18
2022-10-25T20:28:42.596Z,11.93
2022-10-25T20:31:10.956Z,11.23
2022-10-25T20:33:39.341Z,11.13
2022-10-25T20:36:09.162Z,11.40
2022-10-25T20:38:38.022Z,11.00
2022-10-25T20:41:07.386Z,11.48
2022-10-25T20:43:37.331Z,10.23
2022-10-25T20:46:06.210Z,11.32
2022-10-25T20:48:34.500Z,11.07
2022-10-25T20:51:05.351Z,12.30
2022-10-25T20:53:36.406Z,11.50
2022-10-25T20:56:04.550Z,12.52
2022-10-25T20:58:34.012Z,12.00
2022-10-25T21:01:03.554Z,13.43
2022-10-25T21:03:33.143Z,12.60
2022-10-25T21:06:04.443Z,12.52
2022-10-25T21:08:33.131Z,12.85
2022-10-25T21:11:02.592Z,13.32
2022-10-25T21:13:32.488Z,13.02
2022-10-25T21:16:05.383Z,13.65
2022-10-25T21:18:36.108Z,13.38
2022-10-25T21:21:06.214Z,12.25
2022-10-25T21:23:34.159Z,12.98
2022-10-25T21:26:03.139Z,11.85
2022-10-25T21:28:34.779Z,12.38
2022-10-25T21:31:03.551Z,12.60
2022-10-25T21:33:31.458Z,12.35
2022-10-25T21:36:05.580Z,12.10
2022-10-25T21:38:33.774Z,12.25
2022-10-25T21:41:09.359Z,12.93
2022-10-25T21:43:37.388Z,11.30
2022-10-25T21:46:06.673Z,13.00
2022-10-25T21:48:35.744Z,12.02
2022-10-25T21:51:05.386Z,12.38
2022-10-25T21:53:33.953Z,12.38
2022-10-25T21:56:10.504Z,12.80
2022-10-25T21:58:39.008Z,13.57
2022-10-25T22:01:12.398Z,12.73
2022-10-25T22:03:41.082Z,13.05
2022-10-25T22:06:12.400Z,13.30
2022-10-25T22:08:41.916Z,15.05
2022-10-25T22:11:13.190Z,14.43
2022-10-25T22:13:42.947Z,13.18
2022-10-25T22:16:13.696Z,13.45
2022-10-25T22:18:42.192Z,13.52
2022-10-25T22:21:13.378Z,14.27
2022-10-25T22:23:41.479Z,13.60
2022-10-25T22:26:11.564Z,13.43
2022-10-25T22:28:41.236Z,13.77
2022-10-25T22:31:11.096Z,14.32
2022-10-25T22:33:39.742Z,15.55
2022-10-25T22:36:09.457Z,15.40
2022-10-25T22:38:39.197Z,15.15
2022-10-25T22:41:09.170Z,14.40
2022-10-25T22:43:38.406Z,15.52
2022-10-25T22:46:08.745Z,15.93
2022-10-25T22:48:38.313Z,16.33
2022-10-25T22:51:07.676Z,16.30
2022-10-25T22:53:36.550Z,16.42
2022-10-25T22:56:08.143Z,15.45
2022-10-25T22:58:38.291Z,16.02
2022-10-25T23:01:08.502Z,15.45
2022-10-25T23:03:38.090Z,15.35
2022-10-25T23:06:07.472Z,15.43
2022-10-25T23:08:35.458Z,16.25
2022-10-25T23:11:07.015Z,16.10
2022-10-25T23:13:36.843Z,16.67
2022-10-25T23:16:05.322Z,16.58
2022-10-25T23:18:33.651Z,15.95
2022-10-25T23:21:03.030Z,16.92
2022-10-25T23:23:35.374Z,17.27
2022-10-25T23:26:03.781Z,17.20
2022-10-25T23:28:34.051Z,17.60
2022-10-25T23:31:06.388Z,16.67
2022-10-25T23:33:34.575Z,17.15
2022-10-25T23:36:03.782Z,17.17
2022-10-25T23:38:31.875Z,16.48
2022-10-25T23:40:59.821Z,17.50
2022-10-25T23:43:28.315Z,17.50
2022-10-25T23:45:57.675Z,18.33
2022-10-25T23:48:25.835Z,18.92
2022-10-25T23:50:58.421Z,18.10
2022-10-25T23:53:26.886Z,19.20
2022-10-25T23:55:56.122Z,18.48
2022-10-25T23:58:24.798Z,19.27
